Chelmsford, Canada
Current Conditions -  °F | °C
As of 4:00 PM on Sunday 23 Nov 2014 (Local Time) from CYSB Reporting Station
Light Rain Light Rain  
Wind Chill: 31°   Ceiling: 100
Heat Index: 39°   Visibility: 0.12mi
Dew Point: 39°   Wind: 15mph
Humidity: 100%   Direction: 170°S
Pressure: 29.72"   Gusts: NA
Location:  46.58°N, 81.2°W
Report Text: CYSB 232100Z 17013KT 1/8SM R22/1000FT/N -RA FG VV001 04/04 A2972 RMK FG8 PCPN VRY LGT SLP078
Loading
Personal Weather Stations






























Interactive Weather Map New forecast layout! Learn more

10-Day Weather Forecast

Advertisements
Track Severe Weather on mobile